Time;durP1;ratioP1;P1;durP2;ratioP2;P2;SDS_P1;SDS_P2;PMS_P1;PMS_P2;Temp;Humidity;BMP_temperature;BMP_pressure;BME280_temperature;BME280_humidity;BME280_pressure;Samples;Min_cycle;Max_cycle;Signal;HPM_P1;HPM_P2
2022/12/16 00:01:04;;;;;;;0.00;0.00;;;;;;;-1.52;100.00;97401.31;4943114;28;20719;-53
2022/12/16 00:03:31;;;;;;;0.00;0.00;;;;;;;-1.49;100.00;97396.78;4949326;28;20327;-53
2022/12/16 00:05:57;;;;;;;0.00;0.00;;;;;;;-1.44;100.00;97401.59;4943697;28;20268;-54
2022/12/16 00:08:24;;;;;;;0.00;0.00;;;;;;;-1.48;100.00;97397.63;4950691;28;20236;-55
2022/12/16 00:10:53;;;;;;;0.00;0.00;;;;;;;-1.40;100.00;97407.31;4947385;28;20244;-53
2022/12/16 00:13:20;;;;;;;0.00;0.00;;;;;;;-1.66;100.00;97405.63;4945863;28;20223;-53
2022/12/16 00:15:48;;;;;;;0.00;0.00;;;;;;;-1.82;100.00;97412.69;4943259;28;20275;-53
2022/12/16 00:18:14;;;;;;;0.00;0.00;;;;;;;-1.84;100.00;97412.81;4947980;28;20704;-54
2022/12/16 00:20:45;;;;;;;0.00;0.00;;;;;;;-1.94;100.00;97409.22;4945806;28;20241;-52
2022/12/16 00:23:12;;;;;;;0.00;0.00;;;;;;;-1.94;100.00;97404.91;4945777;28;20616;-54
2022/12/16 00:25:41;;;;;;;0.00;0.00;;;;;;;-1.95;100.00;97408.38;4942412;28;20317;-54
2022/12/16 00:28:07;;;;;;;0.00;0.00;;;;;;;-1.92;100.00;97420.16;4947960;28;20239;-54
2022/12/16 00:30:34;;;;;;;0.00;0.00;;;;;;;-2.02;100.00;97425.06;4944784;28;20233;-53
2022/12/16 00:33:02;;;;;;;0.10;0.10;;;;;;;-2.06;100.00;97433.03;4943350;28;20733;-54
2022/12/16 00:35:29;;;;;;;0.00;0.00;;;;;;;-2.13;100.00;97433.44;4947734;28;20218;-54
2022/12/16 00:37:55;;;;;;;0.00;0.00;;;;;;;-2.20;100.00;97439.06;4940594;28;20265;-55
2022/12/16 00:40:22;;;;;;;0.10;0.10;;;;;;;-2.13;100.00;97447.97;4946599;28;20219;-52
2022/12/16 00:42:49;;;;;;;0.00;0.00;;;;;;;-2.07;100.00;97450.13;4945740;28;20232;-53
2022/12/16 00:45:16;;;;;;;0.00;0.00;;;;;;;-2.02;100.00;97460.88;4948700;28;20242;-54
2022/12/16 00:47:43;;;;;;;0.00;0.00;;;;;;;-2.00;100.00;97464.13;4946066;28;20364;-53
2022/12/16 00:50:11;;;;;;;0.10;0.10;;;;;;;-2.02;100.00;97468.53;4947542;28;20223;-52
2022/12/16 00:52:38;;;;;;;0.10;0.10;;;;;;;-2.05;100.00;97473.84;4945726;28;20238;-54
2022/12/16 00:55:05;;;;;;;0.03;0.03;;;;;;;-2.19;100.00;97473.94;4951002;28;20241;-53
2022/12/16 00:57:31;;;;;;;0.10;0.10;;;;;;;-2.25;100.00;97475.97;4946560;28;20233;-52
2022/12/16 00:59:58;;;;;;;0.10;0.10;;;;;;;-2.29;100.00;97476.25;4940645;28;20239;-54
2022/12/16 01:02:25;;;;;;;0.00;0.00;;;;;;;-2.30;100.00;97482.28;4948027;28;20243;-53
2022/12/16 01:04:52;;;;;;;0.10;0.10;;;;;;;-2.28;100.00;97470.22;4944414;28;20224;-52
2022/12/16 01:07:20;;;;;;;0.00;0.00;;;;;;;-2.30;100.00;97475.47;4947134;28;20234;-55
2022/12/16 01:09:46;;;;;;;0.00;0.00;;;;;;;-2.30;100.00;97472.06;4943565;28;20278;-54
2022/12/16 01:12:13;;;;;;;0.00;0.00;;;;;;;-2.26;100.00;97468.41;4948184;28;20239;-54
2022/12/16 01:14:40;;;;;;;0.10;0.10;;;;;;;-2.21;100.00;97468.91;4943646;28;20350;-54
2022/12/16 01:17:06;;;;;;;0.00;0.00;;;;;;;-2.18;100.00;97473.03;4948242;28;20336;-54
2022/12/16 01:19:33;;;;;;;0.00;0.00;;;;;;;-2.13;100.00;97476.09;4948936;28;20708;-54
2022/12/16 01:22:00;;;;;;;0.00;0.00;;;;;;;-2.09;100.00;97485.19;4944078;28;20705;-53
2022/12/16 01:24:27;;;;;;;0.00;0.00;;;;;;;-2.05;100.00;97483.28;4946429;28;20692;-53
2022/12/16 01:26:54;;;;;;;0.00;0.00;;;;;;;-2.05;100.00;97493.50;4942525;28;20254;-55
2022/12/16 01:29:21;;;;;;;0.00;0.00;;;;;;;-2.06;100.00;97484.19;4946435;28;20227;-54
2022/12/16 01:31:47;;;;;;;0.00;0.00;;;;;;;-2.12;100.00;97499.00;4944795;28;20577;-56
2022/12/16 01:34:14;;;;;;;0.00;0.00;;;;;;;-2.09;100.00;97493.69;4947592;28;20236;-53
2022/12/16 01:36:41;;;;;;;0.10;0.10;;;;;;;-2.06;100.00;97497.78;4950214;28;20323;-55
2022/12/16 01:39:09;;;;;;;0.00;0.00;;;;;;;-2.01;100.00;97503.41;4948952;28;20772;-54
2022/12/16 01:41:38;;;;;;;0.00;0.00;;;;;;;-2.00;100.00;97497.38;4949383;28;20232;-53
2022/12/16 01:44:14;;;;;;;0.10;0.10;;;;;;;-1.98;100.00;97498.09;4947186;28;20639;-55
2022/12/16 01:46:41;;;;;;;0.00;0.00;;;;;;;-1.97;100.00;97498.94;4948985;28;20616;-55
2022/12/16 01:49:16;;;;;;;0.00;0.00;;;;;;;-1.96;100.00;97498.00;4951174;28;20703;-54
2022/12/16 01:51:44;;;;;;;0.00;0.00;;;;;;;-1.93;100.00;97498.63;4948927;28;20283;-54
2022/12/16 01:54:15;;;;;;;0.00;0.00;;;;;;;-2.03;100.00;97500.13;4949551;28;20235;-55
2022/12/16 01:56:48;;;;;;;0.00;0.00;;;;;;;-2.05;100.00;97498.63;4949585;28;20237;-54
2022/12/16 01:59:17;;;;;;;0.00;0.00;;;;;;;-2.11;100.00;97495.53;4950172;28;20280;-52
2022/12/16 02:01:44;;;;;;;0.00;0.00;;;;;;;-2.05;100.00;97501.97;4944117;28;20224;-52
2022/12/16 02:04:10;;;;;;;0.10;0.10;;;;;;;-2.14;100.00;97503.41;4950944;28;20231;-54
2022/12/16 02:06:37;;;;;;;0.00;0.00;;;;;;;-2.08;100.00;97505.56;4948692;28;20294;-53
2022/12/16 02:09:07;;;;;;;0.10;0.10;;;;;;;-2.11;100.00;97504.94;4951606;28;20855;-53
2022/12/16 02:12:03;;;;;;;0.00;0.00;;;;;;;-2.09;100.00;97508.19;4951133;28;20250;-53
2022/12/16 02:15:02;;;;;;;0.00;0.00;;;;;;;-2.11;100.00;97510.88;4947809;28;20222;-53
2022/12/16 02:17:38;;;;;;;0.03;0.03;;;;;;;-2.07;100.00;97514.03;4948729;28;20231;-53
2022/12/16 02:20:47;;;;;;;0.00;0.00;;;;;;;-1.97;100.00;97512.53;4948708;28;20363;-54
2022/12/16 02:23:50;;;;;;;0.00;0.00;;;;;;;-2.09;100.00;97511.59;4949329;28;20685;-53
2022/12/16 02:26:43;;;;;;;0.00;0.00;;;;;;;-2.13;100.00;97517.81;4947175;28;20234;-55
2022/12/16 02:29:36;;;;;;;0.00;0.00;;;;;;;-2.12;100.00;97522.03;4949132;28;20219;-53
2022/12/16 02:32:11;;;;;;;0.00;0.00;;;;;;;-2.18;100.00;97527.53;4948704;28;20240;-53
2022/12/16 02:34:49;;;;;;;0.00;0.00;;;;;;;-2.13;100.00;97535.72;4947169;28;20237;-53
2022/12/16 02:37:30;;;;;;;0.00;0.00;;;;;;;-2.21;100.00;97530.28;4952498;28;20317;-52
2022/12/16 02:40:00;;;;;;;0.00;0.00;;;;;;;-2.26;100.00;97539.97;4946153;28;20762;-53
2022/12/16 02:42:31;;;;;;;0.03;0.03;;;;;;;-2.21;100.00;97537.13;4948556;28;20227;-53
2022/12/16 02:45:02;;;;;;;0.00;0.00;;;;;;;-2.25;100.00;97544.16;4946030;28;20239;-56
2022/12/16 02:47:31;;;;;;;0.00;0.00;;;;;;;-2.36;100.00;97537.19;4947338;28;20246;-53
2022/12/16 02:49:59;;;;;;;0.00;0.00;;;;;;;-2.34;100.00;97540.47;4946374;28;20242;-53
2022/12/16 02:52:28;;;;;;;0.10;0.10;;;;;;;-2.26;100.00;97552.75;4949670;28;20238;-53
2022/12/16 02:54:59;;;;;;;0.00;0.00;;;;;;;-2.34;100.00;97549.84;4947208;28;20246;-52
2022/12/16 02:57:50;;;;;;;0.10;0.10;;;;;;;-2.27;100.00;97549.38;4948071;28;20582;-52
2022/12/16 03:00:19;;;;;;;0.00;0.00;;;;;;;-2.23;100.00;97560.22;4948280;28;20242;-53
2022/12/16 03:02:54;;;;;;;0.10;0.10;;;;;;;-2.17;100.00;97564.16;4945218;28;20642;-53
2022/12/16 03:05:25;;;;;;;0.07;0.07;;;;;;;-2.12;100.00;97569.78;4949733;28;20228;-53
2022/12/16 03:07:54;;;;;;;0.00;0.00;;;;;;;-2.10;100.00;97570.50;4945858;28;20231;-54
2022/12/16 03:10:26;;;;;;;0.07;0.07;;;;;;;-2.06;100.00;97571.13;4948670;28;20220;-52
2022/12/16 03:12:55;;;;;;;0.00;0.00;;;;;;;-2.03;100.00;97581.97;4948031;28;20304;-54
2022/12/16 03:15:26;;;;;;;0.07;0.07;;;;;;;-1.99;100.00;97572.38;4948284;28;20234;-54
2022/12/16 03:17:55;;;;;;;0.00;0.00;;;;;;;-1.97;100.00;97568.78;4947139;28;20600;-55
2022/12/16 03:20:27;;;;;;;0.00;0.00;;;;;;;-1.95;100.00;97576.38;4949993;28;20284;-55
2022/12/16 03:22:58;;;;;;;0.00;0.00;;;;;;;-1.94;100.00;97578.81;4946613;28;20244;-55
2022/12/16 03:25:28;;;;;;;0.00;0.00;;;;;;;-1.95;100.00;97584.88;4946096;28;20224;-55
2022/12/16 03:28:00;;;;;;;0.00;0.00;;;;;;;-1.89;100.00;97593.06;4945436;28;20240;-56
2022/12/16 03:30:32;;;;;;;0.00;0.00;;;;;;;-2.03;100.00;97594.75;4945697;28;20233;-56
2022/12/16 03:33:04;;;;;;;0.00;0.00;;;;;;;-2.10;100.00;97590.94;4946520;28;20700;-56
2022/12/16 03:35:35;;;;;;;0.00;0.00;;;;;;;-2.08;100.00;97597.63;4947896;28;20240;-56
2022/12/16 03:38:05;;;;;;;0.00;0.00;;;;;;;-2.06;100.00;97591.59;4948627;28;20829;-56
2022/12/16 03:40:33;;;;;;;0.00;0.00;;;;;;;-2.03;100.00;97583.72;4949391;28;20710;-55
2022/12/16 03:43:02;;;;;;;0.00;0.00;;;;;;;-2.00;100.00;97586.88;4943725;28;20242;-53
2022/12/16 03:45:33;;;;;;;0.10;0.10;;;;;;;-2.10;100.00;97588.38;4946695;28;20692;-53
2022/12/16 03:48:01;;;;;;;0.00;0.00;;;;;;;-2.10;100.00;97585.81;4946278;28;20310;-53
2022/12/16 03:50:31;;;;;;;0.10;0.10;;;;;;;-2.06;100.00;97594.16;4947418;28;20235;-52
2022/12/16 03:52:58;;;;;;;0.00;0.00;;;;;;;-2.03;100.00;97594.75;4946527;28;20251;-53
2022/12/16 03:55:26;;;;;;;0.00;0.00;;;;;;;-2.04;100.00;97590.56;4947982;28;20227;-54
2022/12/16 03:57:52;;;;;;;0.00;0.00;;;;;;;-2.10;100.00;97586.66;4945587;28;20223;-53
2022/12/16 04:00:19;;;;;;;0.00;0.00;;;;;;;-2.09;100.00;97592.59;4949391;28;20240;-54
2022/12/16 04:05:28;;;;;;;0.00;0.00;;;;;;;-2.13;100.00;97596.28;4987815;23;20358;-63
2022/12/16 04:07:55;;;;;;;0.00;0.00;;;;;;;-2.17;100.00;97605.88;4945078;28;20231;-63
2022/12/16 04:24:17;;;;;;;0.00;0.00;;;;;;;-2.17;100.00;97612.72;4947497;28;20237;-63
2022/12/16 04:24:22;;;;;;;0.10;0.10;;;;;;;-2.13;100.00;97627.78;4926227;28;20243;-63
2022/12/16 04:30:17;;;;;;;0.00;0.00;;;;;;;-2.20;100.00;97635.94;4926588;29;20776;-63
2022/12/16 04:32:21;;;;;;;0.00;0.00;;;;;;;-2.31;100.00;97642.53;5125843;23;20219;-63
2022/12/16 04:34:46;;;;;;;0.00;0.00;;;;;;;-2.33;100.00;97639.25;4944090;28;20725;-64
